Time,TemperatureF,DewpointF,PressureIn,WindDirection,WindDirectionDegrees,WindSpeedMPH,WindSpeedGustMPH,Humidity,HourlyPrecipIn,Conditions,Clouds,dailyrainin,SoftwareType,DateUTC
2013-01-15 00:00:00,34.9,25.0,30.22,ENE,58,5.8,6.0,67,0.00,CLR,,0.03,WeatherDisplay:10.37,2013-01-15 05:00:00,
2013-01-15 00:01:00,34.9,25.0,30.22,NNE,26,4.8,8.1,67,0.00,CLR,,0.00,WeatherDisplay:10.37,2013-01-15 05:01:00,
2013-01-15 00:02:00,34.9,25.0,30.22,NE,39,3.1,5.8,67,0.00,CLR,,0.00,WeatherDisplay:10.37,2013-01-15 05:02:00,
2013-01-15 00:03:00,34.9,25.0,30.22,NE,39,0.9,3.5,67,0.00,CLR,,0.00,WeatherDisplay:10.37,2013-01-15 05:03:00,
2013-01-15 00:08:00,34.9,25.4,30.22,NNE,31,3.8,6.9,68,0.00,CLR,,0.00,WeatherDisplay:10.37,2013-01-15 05:08:00,
2013-01-15 00:14:00,34.7,25.2,30.22,NE,40,3.1,4.6,68,0.00,CLR,,0.00,WeatherDisplay:10.37,2013-01-15 05:14:00,
2013-01-15 00:19:00,34.7,25.6,30.22,NE,52,3.4,5.0,69,0.00,CLR,,0.00,WeatherDisplay:10.37,2013-01-15 05:19:00,
2013-01-15 00:24:00,34.7,25.6,30.22,NNE,23,5.9,10.4,69,0.00,CLR,,0.00,WeatherDisplay:10.37,2013-01-15 05:24:00,
2013-01-15 00:29:00,34.6,25.1,30.21,NNE,14,1.8,4.6,68,0.00,CLR,,0.00,WeatherDisplay:10.37,2013-01-15 05:29:00,
2013-01-15 00:34:00,34.6,25.5,30.22,NNE,26,1.4,4.6,69,0.00,CLR,,0.00,WeatherDisplay:10.37,2013-01-15 05:34:00,
2013-01-15 00:39:00,34.6,25.5,30.22,NE,42,2.6,4.6,69,0.00,CLR,,0.00,WeatherDisplay:10.37,2013-01-15 05:39:00,
2013-01-15 00:44:00,34.6,25.5,30.24,NNE,14,1.2,3.5,69,0.00,CLR,,0.00,WeatherDisplay:10.37,2013-01-15 05:44:00,
2013-01-15 00:49:00,34.6,25.5,30.24,NE,44,3.9,5.8,69,0.00,CLR,,0.00,WeatherDisplay:10.37,2013-01-15 05:49:00,
2013-01-15 00:55:00,34.6,25.8,30.24,North,355,3.0,3.5,70,0.00,CLR,,0.00,WeatherDisplay:10.37,2013-01-15 05:55:00,
2013-01-15 01:00:00,34.6,25.8,30.23,NE,56,1.5,3.5,70,0.00,CLR,,0.00,WeatherDisplay:10.37,2013-01-15 06:00:00,
2013-01-15 01:05:00,34.6,25.8,30.22,NE,51,0.7,3.5,70,0.00,CLR,,0.00,WeatherDisplay:10.37,2013-01-15 06:05:00,
2013-01-15 01:10:00,34.4,26.6,30.22,North,360,2.5,6.9,73,0.00,CLR,,0.00,WeatherDisplay:10.37,2013-01-15 06:10:00,
2013-01-15 01:15:00,34.1,27.0,30.22,NNE,19,7.7,12.7,75,0.00,CLR,,0.00,WeatherDisplay:10.37,2013-01-15 06:15:00,
2013-01-15 01:21:00,34.0,27.2,30.22,NE,49,3.3,5.8,76,0.00,CLR,,0.00,WeatherDisplay:10.37,2013-01-15 06:21:00,
2013-01-15 01:26:00,33.7,27.6,30.24,NE,34,2.2,3.5,78,0.00,CLR,,0.00,WeatherDisplay:10.37,2013-01-15 06:26:00,
2013-01-15 01:31:00,33.5,27.4,30.22,NNE,31,0.3,3.5,78,0.00,CLR,,0.00,WeatherDisplay:10.37,2013-01-15 06:31:00,
2013-01-15 01:36:00,33.5,27.4,30.23,North,5,1.4,3.5,78,0.00,CLR,,0.00,WeatherDisplay:10.37,2013-01-15 06:36:00,
2013-01-15 01:42:00,33.4,27.9,30.24,North,355,0.2,1.1,80,0.00,CLR,,0.00,WeatherDisplay:10.37,2013-01-15 06:42:00,
2013-01-15 01:47:00,33.4,27.9,30.22,NE,48,1.4,2.3,80,0.00,CLR,,0.00,WeatherDisplay:10.37,2013-01-15 06:47:00,
2013-01-15 01:52:00,33.2,27.7,30.21,ENE,72,0.0,0.0,80,0.00,CLR,,0.00,WeatherDisplay:10.37,2013-01-15 06:52:00,
2013-01-15 01:58:00,33.2,28.0,30.21,NNE,28,0.1,3.0,81,0.00,CLR,,0.00,WeatherDisplay:10.37,2013-01-15 06:58:00,
2013-01-15 02:03:00,33.2,27.4,30.21,NNE,22,0.6,2.3,79,0.00,CLR,,0.00,WeatherDisplay:10.37,2013-01-15 07:03:00,
2013-01-15 02:08:00,33.2,27.1,30.21,ENE,57,0.9,3.5,78,0.00,CLR,,0.00,WeatherDisplay:10.37,2013-01-15 07:08:00,
2013-01-15 02:14:00,33.4,27.0,30.21,ENE,68,2.2,3.5,77,0.00,CLR,,0.00,WeatherDisplay:10.37,2013-01-15 07:14:00,
2013-01-15 02:19:00,33.4,27.3,30.18,ENE,71,1.6,3.5,78,0.00,CLR,,0.00,WeatherDisplay:10.37,2013-01-15 07:19:00,
2013-01-15 02:24:00,33.4,27.3,30.19,ENE,71,1.2,3.5,78,0.00,CLR,,0.00,WeatherDisplay:10.37,2013-01-15 07:24:00,
2013-01-15 02:29:00,33.4,27.0,30.22,NW,324,1.6,2.3,77,0.00,CLR,,0.00,WeatherDisplay:10.37,2013-01-15 07:29:00,
2013-01-15 02:34:00,33.4,26.6,30.21,NNE,21,1.1,3.5,76,0.00,CLR,,0.00,WeatherDisplay:10.37,2013-01-15 07:34:00,
2013-01-15 02:39:00,33.5,26.4,30.21,NNE,19,1.5,3.5,75,0.00,CLR,,0.00,WeatherDisplay:10.37,2013-01-15 07:39:00,
2013-01-15 02:45:00,33.5,26.1,30.18,ENE,57,2.8,3.5,74,0.00,CLR,,0.00,WeatherDisplay:10.37,2013-01-15 07:45:00,
2013-01-15 02:50:00,33.5,26.4,30.21,ENE,57,0.9,2.3,75,0.00,CLR,,0.00,WeatherDisplay:10.37,2013-01-15 07:50:00,
2013-01-15 02:55:00,33.5,26.4,30.22,NNW,338,1.7,3.5,75,0.00,CLR,,0.00,WeatherDisplay:10.37,2013-01-15 07:55:00,
2013-01-15 03:00:00,33.5,26.1,30.21,NNW,343,0.0,1.1,74,0.00,CLR,,0.00,WeatherDisplay:10.37,2013-01-15 08:00:00,
2013-01-15 03:05:00,33.5,26.1,30.19,NE,53,2.9,3.0,74,0.00,CLR,,0.00,WeatherDisplay:10.37,2013-01-15 08:05:00,
2013-01-15 03:11:00,33.5,26.1,30.21,NNE,28,2.5,5.8,74,0.00,CLR,,0.00,WeatherDisplay:10.37,2013-01-15 08:11:00,
2013-01-15 03:16:00,33.5,25.4,30.19,NNE,30,3.9,5.8,72,0.00,CLR,,0.00,WeatherDisplay:10.37,2013-01-15 08:16:00,
2013-01-15 03:21:00,33.7,25.3,30.20,NNW,347,7.4,11.5,71,0.00,CLR,,0.00,WeatherDisplay:10.37,2013-01-15 08:21:00,
2013-01-15 03:27:00,33.7,25.3,30.19,NE,40,4.3,7.0,71,0.00,CLR,,0.00,WeatherDisplay:10.37,2013-01-15 08:27:00,
2013-01-15 03:32:00,33.5,25.1,30.16,ENE,60,2.8,4.6,71,0.00,CLR,,0.00,WeatherDisplay:10.37,2013-01-15 08:32:00,
2013-01-15 03:37:00,33.5,25.1,30.18,North,9,4.8,6.9,71,0.00,CLR,,0.00,WeatherDisplay:10.37,2013-01-15 08:37:00,
2013-01-15 03:42:00,33.5,25.1,30.18,NNE,15,4.6,8.0,71,0.00,CLR,,0.00,WeatherDisplay:10.37,2013-01-15 08:42:00,
2013-01-15 03:47:00,33.5,25.1,30.18,North,360,4.9,6.9,71,0.00,CLR,,0.00,WeatherDisplay:10.37,2013-01-15 08:47:00,
2013-01-15 03:52:00,33.5,25.1,30.19,North,5,4.7,8.1,71,0.00,CLR,,0.00,WeatherDisplay:10.37,2013-01-15 08:52:00,
2013-01-15 03:57:00,33.5,25.1,30.18,NNE,14,4.2,5.8,71,0.00,CLR,,0.00,WeatherDisplay:10.37,2013-01-15 08:57:00,
2013-01-15 04:03:00,33.5,25.1,30.19,NNE,32,3.0,6.9,71,0.00,CLR,,0.00,WeatherDisplay:10.37,2013-01-15 09:03:00,
2013-01-15 04:08:00,33.5,25.1,30.19,NE,38,2.2,4.0,71,0.00,CLR,,0.00,WeatherDisplay:10.37,2013-01-15 09:08:00,
2013-01-15 04:13:00,33.5,25.1,30.19,NE,38,6.3,10.0,71,0.00,CLR,,0.00,WeatherDisplay:10.37,2013-01-15 09:13:00,
2013-01-15 04:18:00,33.5,24.8,30.18,NE,40,3.7,4.6,70,0.00,CLR,,0.00,WeatherDisplay:10.37,2013-01-15 09:18:00,
2013-01-15 04:24:00,33.5,25.1,30.18,NNE,13,2.4,10.4,71,0.00,CLR,,0.00,WeatherDisplay:10.37,2013-01-15 09:24:00,
2013-01-15 04:29:00,33.5,24.8,30.18,North,355,5.7,9.2,70,0.00,CLR,,0.00,WeatherDisplay:10.37,2013-01-15 09:29:00,
2013-01-15 04:34:00,33.4,24.7,30.18,NNE,25,3.9,6.9,70,0.00,CLR,,0.00,WeatherDisplay:10.37,2013-01-15 09:34:00,
2013-01-15 04:40:00,33.4,24.7,30.19,NNE,17,5.0,11.5,70,0.00,CLR,,0.00,WeatherDisplay:10.37,2013-01-15 09:40:00,
2013-01-15 04:45:00,33.4,24.7,30.19,ENE,77,6.0,9.2,70,0.00,CLR,,0.00,WeatherDisplay:10.37,2013-01-15 09:45:00,
2013-01-15 04:50:00,33.4,24.7,30.18,NNE,24,5.7,10.4,70,0.00,CLR,,0.00,WeatherDisplay:10.37,2013-01-15 09:50:00,
2013-01-15 04:55:00,33.4,25.0,30.18,NE,47,5.3,10.4,71,0.00,CLR,,0.00,WeatherDisplay:10.37,2013-01-15 09:55:00,
2013-01-15 05:00:00,33.2,24.8,30.18,NNE,16,3.1,3.5,71,0.00,CLR,,0.00,WeatherDisplay:10.37,2013-01-15 10:00:00,
2013-01-15 05:05:00,33.1,24.4,30.18,North,5,4.2,6.9,70,0.00,CLR,,0.00,WeatherDisplay:10.37,2013-01-15 10:05:00,
2013-01-15 05:11:00,32.9,24.5,30.18,NNE,24,3.6,6.9,71,0.00,CLR,,0.00,WeatherDisplay:10.37,2013-01-15 10:11:00,
2013-01-15 05:16:00,32.8,24.4,30.19,NNE,24,3.0,5.0,71,0.00,CLR,,0.00,WeatherDisplay:10.37,2013-01-15 10:16:00,
2013-01-15 05:21:00,32.8,24.4,30.19,NNE,28,4.1,5.8,71,0.00,CLR,,0.00,WeatherDisplay:10.37,2013-01-15 10:21:00,
2013-01-15 05:27:00,32.7,24.3,30.20,North,355,3.6,3.6,71,0.00,CLR,,0.00,WeatherDisplay:10.37,2013-01-15 10:27:00,
2013-01-15 05:32:00,32.5,24.1,30.20,NNE,24,4.5,9.2,71,0.00,CLR,,0.00,WeatherDisplay:10.37,2013-01-15 10:32:00,
2013-01-15 05:37:00,32.5,24.5,30.21,NNE,30,5.7,7.0,72,0.00,CLR,,0.00,WeatherDisplay:10.37,2013-01-15 10:37:00,
2013-01-15 05:42:00,32.4,24.4,30.21,NNE,16,2.8,4.6,72,0.00,CLR,,0.00,WeatherDisplay:10.37,2013-01-15 10:42:00,
2013-01-15 05:47:00,32.4,24.4,30.22,NNE,15,5.1,9.2,72,0.00,CLR,,0.00,WeatherDisplay:10.37,2013-01-15 10:47:00,
2013-01-15 05:53:00,32.2,24.5,30.22,NNE,22,3.3,3.5,73,0.00,CLR,,0.00,WeatherDisplay:10.37,2013-01-15 10:53:00,
2013-01-15 05:58:00,32.1,24.4,30.23,NE,39,0.9,2.3,73,0.00,CLR,,0.00,WeatherDisplay:10.37,2013-01-15 10:58:00,
2013-01-15 06:03:00,31.9,24.2,30.23,NE,39,2.6,3.5,73,0.00,CLR,,0.00,WeatherDisplay:10.37,2013-01-15 11:03:00,
2013-01-15 06:08:00,31.9,24.2,30.24,NE,39,2.0,3.5,73,0.00,CLR,,0.00,WeatherDisplay:10.37,2013-01-15 11:08:00,
2013-01-15 06:13:00,31.8,24.5,30.24,NE,41,1.3,3.5,74,0.00,CLR,,0.00,WeatherDisplay:10.37,2013-01-15 11:13:00,
2013-01-15 06:18:00,31.6,24.3,30.24,NE,41,2.1,3.5,74,0.00,CLR,,0.00,WeatherDisplay:10.37,2013-01-15 11:18:00,
2013-01-15 06:23:00,31.5,24.2,30.24,NE,47,1.6,3.5,74,0.00,CLR,,0.00,WeatherDisplay:10.37,2013-01-15 11:23:00,
2013-01-15 06:28:00,31.5,24.2,30.24,NNE,32,3.5,6.0,74,0.00,CLR,,0.00,WeatherDisplay:10.37,2013-01-15 11:28:00,
2013-01-15 06:34:00,31.3,24.0,30.24,NE,44,3.9,6.0,74,0.00,CLR,,0.00,WeatherDisplay:10.37,2013-01-15 11:34:00,
2013-01-15 06:39:00,31.2,24.2,30.25,NNE,30,2.6,3.5,75,0.00,CLR,,0.00,WeatherDisplay:10.37,2013-01-15 11:39:00,
2013-01-15 06:44:00,31.2,24.2,30.25,NE,45,2.4,3.5,75,0.00,CLR,,0.00,WeatherDisplay:10.37,2013-01-15 11:44:00,
2013-01-15 06:50:00,31.0,24.0,30.25,ENE,60,3.5,5.8,75,0.00,CLR,,0.00,WeatherDisplay:10.37,2013-01-15 11:50:00,
2013-01-15 06:55:00,30.9,24.2,30.25,NE,36,3.4,4.6,76,0.00,CLR,,0.00,WeatherDisplay:10.37,2013-01-15 11:55:00,
2013-01-15 07:00:00,30.7,24.0,30.25,NNE,12,2.8,9.2,76,0.00,CLR,,0.00,WeatherDisplay:10.37,2013-01-15 12:00:00,
2013-01-15 07:05:00,30.7,24.0,30.25,NNE,21,7.9,12.7,76,0.00,CLR,,0.00,WeatherDisplay:10.37,2013-01-15 12:05:00,
2013-01-15 07:11:00,30.7,24.0,30.25,NNE,23,3.3,6.0,76,0.00,CLR,,0.00,WeatherDisplay:10.37,2013-01-15 12:11:00,
2013-01-15 07:16:00,30.6,23.9,30.25,NNE,14,3.5,4.6,76,0.00,CLR,,0.00,WeatherDisplay:10.37,2013-01-15 12:16:00,
2013-01-15 07:21:00,30.6,23.9,30.25,NNE,24,3.6,9.2,76,0.00,CLR,,0.00,WeatherDisplay:10.37,2013-01-15 12:21:00,
2013-01-15 07:26:00,30.6,23.9,30.25,NE,35,3.6,5.0,76,0.00,CLR,,0.00,WeatherDisplay:10.37,2013-01-15 12:26:00,
2013-01-15 07:31:00,30.4,24.1,30.25,NE,55,2.3,3.5,77,0.00,CLR,,0.00,WeatherDisplay:10.37,2013-01-15 12:31:00,
2013-01-15 07:37:00,30.3,24.0,30.26,NNE,25,2.7,3.5,77,0.00,CLR,,0.00,WeatherDisplay:10.37,2013-01-15 12:37:00,
2013-01-15 07:42:00,30.3,24.0,30.26,NNE,32,1.1,2.0,77,0.00,CLR,,0.00,WeatherDisplay:10.37,2013-01-15 12:42:00,
2013-01-15 07:47:00,30.1,24.1,30.26,NNE,32,1.4,3.5,78,0.00,CLR,,0.00,WeatherDisplay:10.37,2013-01-15 12:47:00,
2013-01-15 07:52:00,30.0,24.0,30.26,NNE,32,2.8,3.5,78,0.00,CLR,,0.00,WeatherDisplay:10.37,2013-01-15 12:52:00,
2013-01-15 07:57:00,30.0,24.0,30.26,NNE,24,2.7,4.0,78,0.00,CLR,,0.00,WeatherDisplay:10.37,2013-01-15 12:57:00,
2013-01-15 08:03:00,30.0,24.0,30.27,NE,36,2.6,3.5,78,0.00,CLR,,0.00,WeatherDisplay:10.37,2013-01-15 13:03:00,
2013-01-15 08:08:00,30.0,24.0,30.27,NE,36,1.5,3.0,78,0.00,CLR,,0.00,WeatherDisplay:10.37,2013-01-15 13:08:00,
2013-01-15 08:13:00,30.0,24.0,30.28,NE,36,2.6,3.5,78,0.00,CLR,,0.00,WeatherDisplay:10.37,2013-01-15 13:13:00,
2013-01-15 08:18:00,30.0,24.0,30.28,NE,36,1.9,3.5,78,0.00,CLR,,0.00,WeatherDisplay:10.37,2013-01-15 13:18:00,
2013-01-15 08:24:00,30.0,24.0,30.28,NE,36,0.3,3.5,78,0.00,CLR,,0.00,WeatherDisplay:10.37,2013-01-15 13:24:00,
2013-01-15 08:29:00,30.1,24.1,30.28,NE,36,2.0,3.5,78,0.00,CLR,,0.00,WeatherDisplay:10.37,2013-01-15 13:29:00,
2013-01-15 08:34:00,30.1,24.1,30.29,NE,36,0.7,3.5,78,0.00,CLR,,0.00,WeatherDisplay:10.37,2013-01-15 13:34:00,
2013-01-15 08:40:00,30.4,24.7,30.29,NE,36,1.1,2.0,79,0.00,CLR,,0.00,WeatherDisplay:10.37,2013-01-15 13:40:00,
2013-01-15 08:45:00,30.7,25.3,30.29,NNW,333,1.6,3.5,80,0.00,CLR,,0.00,WeatherDisplay:10.37,2013-01-15 13:45:00,
2013-01-15 08:50:00,31.0,25.2,30.29,NNW,332,0.9,1.1,79,0.00,CLR,,0.00,WeatherDisplay:10.37,2013-01-15 13:50:00,
2013-01-15 08:55:00,31.3,24.9,30.29,North,9,0.1,1.1,77,0.00,CLR,,0.00,WeatherDisplay:10.37,2013-01-15 13:55:00,
2013-01-15 09:01:00,31.6,24.9,30.29,North,360,0.0,1.1,76,0.00,CLR,,0.00,WeatherDisplay:10.37,2013-01-15 14:01:00,
2013-01-15 09:06:00,31.9,24.9,30.29,NE,46,2.3,5.8,75,0.00,CLR,,0.00,WeatherDisplay:10.37,2013-01-15 14:06:00,
2013-01-15 09:11:00,32.2,24.8,30.29,North,9,5.4,10.4,74,0.00,CLR,,0.00,WeatherDisplay:10.37,2013-01-15 14:11:00,
2013-01-15 09:16:00,32.4,25.0,30.30,North,355,4.7,5.8,74,0.00,CLR,,0.00,WeatherDisplay:10.37,2013-01-15 14:16:00,
2013-01-15 09:22:00,32.5,24.8,30.29,NNE,26,2.9,4.6,73,0.00,CLR,,0.00,WeatherDisplay:10.37,2013-01-15 14:22:00,
2013-01-15 09:27:00,32.5,24.8,30.30,NE,44,0.9,3.5,73,0.00,CLR,,0.00,WeatherDisplay:10.37,2013-01-15 14:27:00,
2013-01-15 09:32:00,32.5,24.5,30.29,NNE,15,6.5,9.2,72,0.00,CLR,,0.00,WeatherDisplay:10.37,2013-01-15 14:32:00,
2013-01-15 09:37:00,32.7,24.7,30.30,NNE,30,3.3,5.8,72,0.00,CLR,,0.00,WeatherDisplay:10.37,2013-01-15 14:37:00,
2013-01-15 09:42:00,32.8,25.1,30.29,NNE,24,2.2,4.6,73,0.00,CLR,,0.00,WeatherDisplay:10.37,2013-01-15 14:42:00,
2013-01-15 09:48:00,32.9,24.5,30.29,NE,36,3.3,3.5,71,0.00,CLR,,0.00,WeatherDisplay:10.37,2013-01-15 14:48:00,
2013-01-15 09:53:00,33.1,24.7,30.29,ENE,59,5.0,6.0,71,0.00,CLR,,0.00,WeatherDisplay:10.37,2013-01-15 14:53:00,
2013-01-15 09:58:00,33.1,25.1,30.28,NE,49,3.9,5.8,72,0.00,CLR,,0.00,WeatherDisplay:10.37,2013-01-15 14:58:00,
2013-01-15 10:03:00,33.2,24.8,30.28,ENE,69,2.2,3.5,71,0.00,CLR,,0.00,WeatherDisplay:10.37,2013-01-15 15:03:00,
2013-01-15 10:08:00,33.2,24.8,30.28,NE,36,3.5,5.8,71,0.00,CLR,,0.00,WeatherDisplay:10.37,2013-01-15 15:08:00,
2013-01-15 10:13:00,33.4,25.0,30.28,NNE,32,1.9,5.0,71,0.00,CLR,,0.00,WeatherDisplay:10.37,2013-01-15 15:13:00,
2013-01-15 10:19:00,33.4,25.0,30.28,North,360,1.6,4.0,71,0.00,CLR,,0.00,WeatherDisplay:10.37,2013-01-15 15:19:00,
2013-01-15 10:24:00,33.4,24.7,30.28,NE,55,0.8,2.3,70,0.00,CLR,,0.00,WeatherDisplay:10.37,2013-01-15 15:24:00,
2013-01-15 10:29:00,33.5,25.1,30.28,NE,37,2.6,3.5,71,0.00,CLR,,0.00,WeatherDisplay:10.37,2013-01-15 15:29:00,
2013-01-15 10:34:00,33.5,24.8,30.28,North,10,3.8,4.6,70,0.00,CLR,,0.00,WeatherDisplay:10.37,2013-01-15 15:34:00,
2013-01-15 10:39:00,33.5,24.8,30.27,NNE,27,3.3,5.8,70,0.00,CLR,,0.00,WeatherDisplay:10.37,2013-01-15 15:39:00,
2013-01-15 10:44:00,33.7,25.0,30.27,NE,53,2.2,2.3,70,0.00,CLR,,0.00,WeatherDisplay:10.37,2013-01-15 15:44:00,
2013-01-15 10:49:00,33.7,25.0,30.26,North,5,3.1,6.0,70,0.00,CLR,,0.00,WeatherDisplay:10.37,2013-01-15 15:49:00,
2013-01-15 10:54:00,33.8,24.7,30.27,NE,41,4.6,5.8,69,0.00,CLR,,0.00,WeatherDisplay:10.37,2013-01-15 15:54:00,
2013-01-15 11:00:00,34.0,24.9,30.27,NE,38,3.6,4.6,69,0.00,CLR,,0.00,WeatherDisplay:10.37,2013-01-15 16:00:00,
2013-01-15 11:05:00,34.1,25.0,30.27,NE,50,2.5,4.6,69,0.00,CLR,,0.00,WeatherDisplay:10.37,2013-01-15 16:05:00,
2013-01-15 11:10:00,34.3,24.8,30.27,NNE,12,2.2,4.0,68,0.00,CLR,,0.00,WeatherDisplay:10.37,2013-01-15 16:10:00,
2013-01-15 11:15:00,34.4,24.9,30.26,NNW,348,1.4,3.5,68,0.00,CLR,,0.00,WeatherDisplay:10.37,2013-01-15 16:15:00,
2013-01-15 11:21:00,34.6,24.8,30.26,NE,46,6.1,10.4,67,0.00,CLR,,0.00,WeatherDisplay:10.37,2013-01-15 16:21:00,
2013-01-15 11:26:00,34.6,24.8,30.26,NNE,26,4.8,9.0,67,0.00,CLR,,0.00,WeatherDisplay:10.37,2013-01-15 16:26:00,
2013-01-15 11:31:00,34.6,24.4,30.26,NNE,12,3.8,4.6,66,0.00,CLR,,0.00,WeatherDisplay:10.37,2013-01-15 16:31:00,
2013-01-15 11:36:00,34.7,24.1,30.27,NNE,15,3.9,9.2,65,0.00,CLR,,0.00,WeatherDisplay:10.37,2013-01-15 16:36:00,
2013-01-15 11:41:00,34.7,24.5,30.26,NE,41,1.7,3.5,66,0.00,CLR,,0.00,WeatherDisplay:10.37,2013-01-15 16:41:00,
2013-01-15 11:46:00,34.9,25.0,30.26,NNW,339,0.3,1.1,67,0.00,CLR,,0.00,WeatherDisplay:10.37,2013-01-15 16:46:00,
2013-01-15 11:51:00,35.0,24.8,30.25,North,5,1.4,3.5,66,0.00,CLR,,0.00,WeatherDisplay:10.37,2013-01-15 16:51:00,
2013-01-15 11:56:00,35.0,24.4,30.26,NE,38,0.7,4.6,65,0.00,CLR,,0.00,WeatherDisplay:10.37,2013-01-15 16:56:00,
2013-01-15 12:01:00,35.2,24.6,30.26,NNE,24,2.9,6.9,65,0.00,CLR,,0.00,WeatherDisplay:10.37,2013-01-15 17:01:00,
2013-01-15 12:07:00,35.3,24.3,30.25,North,355,4.6,5.8,64,0.00,CLR,,0.00,WeatherDisplay:10.37,2013-01-15 17:07:00,
2013-01-15 12:12:00,35.3,24.3,30.25,North,5,0.5,2.3,64,0.00,CLR,,0.00,WeatherDisplay:10.37,2013-01-15 17:12:00,
2013-01-15 12:17:00,35.3,25.1,30.24,North,5,0.0,0.0,66,0.00,CLR,,0.00,WeatherDisplay:10.37,2013-01-15 17:17:00,
2013-01-15 12:22:00,35.5,24.9,30.24,North,5,2.8,4.0,65,0.00,CLR,,0.00,WeatherDisplay:10.37,2013-01-15 17:22:00,
2013-01-15 12:27:00,35.5,24.5,30.25,North,355,3.7,5.8,64,0.00,CLR,,0.00,WeatherDisplay:10.37,2013-01-15 17:27:00,
2013-01-15 12:32:00,35.5,24.5,30.25,NNE,18,3.7,5.8,64,0.00,CLR,,0.00,WeatherDisplay:10.37,2013-01-15 17:32:00,
2013-01-15 12:37:00,35.6,25.4,30.24,NW,324,0.7,5.8,66,0.00,CLR,,0.00,WeatherDisplay:10.37,2013-01-15 17:37:00,
2013-01-15 12:43:00,35.9,25.6,30.24,NE,46,1.2,3.5,66,0.00,CLR,,0.00,WeatherDisplay:10.37,2013-01-15 17:43:00,
2013-01-15 12:48:00,36.0,25.4,30.23,NNW,327,1.6,4.6,65,0.00,CLR,,0.00,WeatherDisplay:10.37,2013-01-15 17:48:00,
2013-01-15 12:53:00,36.0,25.0,30.23,NNE,19,2.5,4.6,64,0.00,CLR,,0.00,WeatherDisplay:10.37,2013-01-15 17:53:00,
2013-01-15 12:58:00,36.0,25.4,30.23,NW,316,2.3,5.0,65,0.00,CLR,,0.00,WeatherDisplay:10.37,2013-01-15 17:58:00,
2013-01-15 13:03:00,36.2,25.2,30.22,North,355,3.5,4.6,64,0.00,CLR,,0.00,WeatherDisplay:10.37,2013-01-15 18:03:00,
2013-01-15 13:08:00,36.2,24.8,30.22,NNW,332,0.8,2.0,63,0.00,CLR,,0.00,WeatherDisplay:10.37,2013-01-15 18:08:00,
2013-01-15 13:14:00,36.2,25.2,30.22,NNW,329,2.2,4.6,64,0.00,CLR,,0.00,WeatherDisplay:10.37,2013-01-15 18:14:00,
2013-01-15 13:19:00,36.2,24.8,30.22,NNE,13,5.3,6.9,63,0.00,CLR,,0.00,WeatherDisplay:10.37,2013-01-15 18:19:00,
2013-01-15 13:24:00,36.2,25.2,30.23,NNW,345,1.5,4.6,64,0.00,CLR,,0.00,WeatherDisplay:10.37,2013-01-15 18:24:00,
2013-01-15 13:29:00,36.2,24.4,30.23,NE,44,4.7,9.2,62,0.00,CLR,,0.00,WeatherDisplay:10.37,2013-01-15 18:29:00,
2013-01-15 13:34:00,36.2,24.0,30.22,North,360,2.2,5.8,61,0.00,CLR,,0.00,WeatherDisplay:10.37,2013-01-15 18:34:00,
2013-01-15 13:39:00,36.2,24.4,30.22,NE,43,3.6,6.9,62,0.00,CLR,,0.00,WeatherDisplay:10.37,2013-01-15 18:39:00,
2013-01-15 13:44:00,36.2,24.4,30.21,NE,47,3.8,9.2,62,0.00,CLR,,0.00,WeatherDisplay:10.37,2013-01-15 18:44:00,
2013-01-15 13:49:00,36.2,24.8,30.21,NNE,14,0.4,2.3,63,0.00,CLR,,0.00,WeatherDisplay:10.37,2013-01-15 18:49:00,
2013-01-15 13:54:00,36.2,24.4,30.21,NNW,348,4.2,8.1,62,0.00,CLR,,0.00,WeatherDisplay:10.37,2013-01-15 18:54:00,
2013-01-15 13:59:00,36.2,24.4,30.22,NNE,12,3.3,9.2,62,0.00,CLR,,0.00,WeatherDisplay:10.37,2013-01-15 18:59:00,
2013-01-15 14:05:00,36.2,24.4,30.22,North,355,3.5,6.9,62,0.00,CLR,,0.00,WeatherDisplay:10.37,2013-01-15 19:05:00,
2013-01-15 14:10:00,36.2,24.0,30.22,NNE,33,3.5,5.0,61,0.00,CLR,,0.00,WeatherDisplay:10.37,2013-01-15 19:10:00,
2013-01-15 14:15:00,36.2,24.4,30.22,NNW,335,2.4,4.6,62,0.00,CLR,,0.00,WeatherDisplay:10.37,2013-01-15 19:15:00,
2013-01-15 14:47:00,36.3,24.1,30.22,North,9,0.0,5.8,61,0.00,CLR,,0.00,WeatherDisplay:10.37,2013-01-15 19:47:00,
2013-01-15 14:52:00,36.3,24.5,30.21,NNE,30,3.7,4.6,62,0.00,CLR,,0.00,WeatherDisplay:10.37,2013-01-15 19:52:00,
2013-01-15 14:57:00,36.3,24.9,30.20,North,351,1.0,3.5,63,0.00,CLR,,0.00,WeatherDisplay:10.37,2013-01-15 19:57:00,
2013-01-15 15:03:00,36.2,24.4,30.20,North,5,2.3,3.5,62,0.00,CLR,,0.00,WeatherDisplay:10.37,2013-01-15 20:03:00,
2013-01-15 15:08:00,36.3,24.5,30.20,North,5,2.7,3.5,62,0.00,CLR,,0.00,WeatherDisplay:10.37,2013-01-15 20:08:00,
2013-01-15 15:13:00,36.3,24.5,30.20,North,5,4.7,5.8,62,0.00,CLR,,0.00,WeatherDisplay:10.37,2013-01-15 20:13:00,
2013-01-15 15:18:00,36.2,24.4,30.20,NNE,15,2.0,3.5,62,0.00,CLR,,0.00,WeatherDisplay:10.37,2013-01-15 20:18:00,
2013-01-15 15:23:00,36.0,24.2,30.21,NE,38,4.9,9.2,62,0.00,CLR,,0.00,WeatherDisplay:10.37,2013-01-15 20:23:00,
2013-01-15 15:28:00,36.0,24.6,30.21,North,5,1.5,3.5,63,0.00,CLR,,0.00,WeatherDisplay:10.37,2013-01-15 20:28:00,
2013-01-15 15:33:00,35.9,24.1,30.21,NE,35,3.4,5.8,62,0.00,CLR,,0.00,WeatherDisplay:10.37,2013-01-15 20:33:00,
2013-01-15 15:38:00,35.9,24.1,30.21,NNE,24,2.3,6.9,62,0.00,CLR,,0.00,WeatherDisplay:10.37,2013-01-15 20:38:00,
2013-01-15 15:44:00,35.8,24.0,30.22,NNE,26,3.1,3.5,62,0.00,CLR,,0.00,WeatherDisplay:10.37,2013-01-15 20:44:00,
2013-01-15 15:49:00,35.8,24.4,30.22,North,5,3.2,4.6,63,0.00,CLR,,0.00,WeatherDisplay:10.37,2013-01-15 20:49:00,
2013-01-15 15:54:00,35.8,24.8,30.23,North,10,0.7,1.1,64,0.00,CLR,,0.00,WeatherDisplay:10.37,2013-01-15 20:54:00,
2013-01-15 15:59:00,35.9,24.9,30.23,North,360,0.3,2.3,64,0.00,CLR,,0.00,WeatherDisplay:10.37,2013-01-15 20:59:00,
2013-01-15 16:04:00,35.8,24.4,30.23,NNE,17,1.9,3.0,63,0.00,CLR,,0.00,WeatherDisplay:10.37,2013-01-15 21:04:00,
2013-01-15 16:09:00,35.8,24.4,30.23,NNE,17,2.2,3.5,63,0.00,CLR,,0.00,WeatherDisplay:10.37,2013-01-15 21:09:00,
2013-01-15 16:15:00,35.8,24.4,30.23,NE,56,2.0,3.5,63,0.00,CLR,,0.00,WeatherDisplay:10.37,2013-01-15 21:15:00,
2013-01-15 16:20:00,35.6,24.2,30.23,NNE,18,0.7,2.3,63,0.00,CLR,,0.00,WeatherDisplay:10.37,2013-01-15 21:20:00,
2013-01-15 16:25:00,35.5,24.1,30.23,NE,45,1.2,2.3,63,0.00,CLR,,0.00,WeatherDisplay:10.37,2013-01-15 21:25:00,
2013-01-15 16:30:00,35.5,24.1,30.23,NE,45,0.4,1.1,63,0.00,CLR,,0.00,WeatherDisplay:10.37,2013-01-15 21:30:00,
2013-01-15 16:35:00,35.3,24.3,30.23,NE,45,0.9,3.0,64,0.00,CLR,,0.00,WeatherDisplay:10.37,2013-01-15 21:35:00,
2013-01-15 16:41:00,35.2,24.2,30.23,NE,45,0.0,1.1,64,0.00,CLR,,0.00,WeatherDisplay:10.37,2013-01-15 21:41:00,
2013-01-15 16:46:00,35.2,24.2,30.22,NE,45,0.3,2.3,64,0.00,CLR,,0.00,WeatherDisplay:10.37,2013-01-15 21:46:00,
2013-01-15 16:51:00,35.0,24.0,30.23,NE,45,0.6,1.1,64,0.00,CLR,,0.00,WeatherDisplay:10.37,2013-01-15 21:51:00,
2013-01-15 16:56:00,35.0,24.4,30.22,NE,45,0.1,1.1,65,0.00,CLR,,0.00,WeatherDisplay:10.37,2013-01-15 21:56:00,
2013-01-15 17:01:00,34.9,24.3,30.23,NE,45,0.1,0.0,65,0.00,CLR,,0.00,WeatherDisplay:10.37,2013-01-15 22:01:00,
2013-01-15 17:07:00,34.7,24.1,30.23,NE,45,0.0,0.0,65,0.00,CLR,,0.00,WeatherDisplay:10.37,2013-01-15 22:07:00,
2013-01-15 17:12:00,34.6,24.8,30.23,NE,45,0.0,0.0,67,0.00,CLR,,0.00,WeatherDisplay:10.37,2013-01-15 22:12:00,
2013-01-15 17:17:00,34.4,25.3,30.23,NE,45,0.0,0.0,69,0.00,CLR,,0.00,WeatherDisplay:10.37,2013-01-15 22:17:00,
2013-01-15 17:22:00,34.3,25.2,30.22,NE,45,0.0,0.0,69,0.00,CLR,,0.00,WeatherDisplay:10.37,2013-01-15 22:22:00,
2013-01-15 17:27:00,34.0,24.9,30.22,NE,45,0.0,0.0,69,0.00,CLR,,0.00,WeatherDisplay:10.37,2013-01-15 22:27:00,
2013-01-15 17:33:00,33.8,25.0,30.22,NE,45,0.0,0.0,70,0.00,CLR,,0.00,WeatherDisplay:10.37,2013-01-15 22:33:00,
2013-01-15 17:38:00,33.5,24.4,30.22,NE,45,0.0,0.0,69,0.00,CLR,,0.00,WeatherDisplay:10.37,2013-01-15 22:38:00,
2013-01-15 17:43:00,33.4,25.0,30.22,NE,45,0.0,0.0,71,0.00,CLR,,0.00,WeatherDisplay:10.37,2013-01-15 22:43:00,
2013-01-15 17:48:00,33.2,25.5,30.22,NE,45,0.0,0.0,73,0.00,CLR,,0.00,WeatherDisplay:10.37,2013-01-15 22:48:00,
2013-01-15 17:54:00,33.1,25.7,30.23,NE,45,0.0,0.0,74,0.00,CLR,,0.00,WeatherDisplay:10.37,2013-01-15 22:54:00,
2013-01-15 17:59:00,32.9,25.8,30.23,NE,45,0.0,0.0,75,0.00,CLR,,0.00,WeatherDisplay:10.37,2013-01-15 22:59:00,
2013-01-15 18:04:00,32.8,26.1,30.22,NE,45,0.0,0.0,76,0.00,CLR,,0.00,WeatherDisplay:10.37,2013-01-15 23:04:00,
2013-01-15 18:09:00,32.7,26.3,30.22,NE,45,0.0,0.0,77,0.00,CLR,,0.00,WeatherDisplay:10.37,2013-01-15 23:09:00,
2013-01-15 18:14:00,32.4,25.7,30.23,NE,45,0.0,0.0,76,0.00,CLR,,0.00,WeatherDisplay:10.37,2013-01-15 23:14:00,
2013-01-15 18:20:00,32.4,25.7,30.23,NE,45,0.0,0.0,76,0.00,CLR,,0.00,WeatherDisplay:10.37,2013-01-15 23:20:00,
2013-01-15 18:25:00,32.2,25.8,30.23,NE,45,0.0,0.0,77,0.00,CLR,,0.00,WeatherDisplay:10.37,2013-01-15 23:25:00,
2013-01-15 18:30:00,32.2,26.1,30.24,NE,45,0.0,0.0,78,0.00,CLR,,0.00,WeatherDisplay:10.37,2013-01-15 23:30:00,
2013-01-15 18:35:00,32.2,26.1,30.23,NE,45,0.0,0.0,78,0.00,CLR,,0.00,WeatherDisplay:10.37,2013-01-15 23:35:00,
2013-01-15 18:41:00,32.1,25.7,30.24,NE,45,0.0,0.0,77,0.00,CLR,,0.00,WeatherDisplay:10.37,2013-01-15 23:41:00,
2013-01-15 18:46:00,32.1,25.7,30.24,NE,45,0.0,0.0,77,0.00,CLR,,0.00,WeatherDisplay:10.37,2013-01-15 23:46:00,
2013-01-15 18:51:00,31.9,26.7,30.25,NE,45,0.0,0.0,81,0.00,CLR,,0.00,WeatherDisplay:10.37,2013-01-15 23:51:00,
2013-01-15 18:56:00,31.9,27.0,30.24,NE,45,0.0,0.0,82,0.00,CLR,,0.00,WeatherDisplay:10.37,2013-01-15 23:56:00,
2013-01-15 19:02:00,32.1,26.9,30.23,NE,45,0.0,0.0,81,0.00,CLR,,0.00,WeatherDisplay:10.37,2013-01-16 00:02:00,
2013-01-15 19:07:00,32.1,26.6,30.23,NNE,13,2.6,5.8,80,0.00,CLR,,0.00,WeatherDisplay:10.37,2013-01-16 00:07:00,
2013-01-15 19:12:00,32.2,25.8,30.24,NNE,15,1.5,3.5,77,0.00,CLR,,0.00,WeatherDisplay:10.37,2013-01-16 00:12:00,
2013-01-15 19:17:00,32.5,24.8,30.23,NNE,15,1.4,3.5,73,0.00,CLR,,0.00,WeatherDisplay:10.37,2013-01-16 00:17:00,
2013-01-15 19:23:00,32.8,24.8,30.23,NNE,15,0.3,2.3,72,0.00,CLR,,0.00,WeatherDisplay:10.37,2013-01-16 00:23:00,
2013-01-15 19:28:00,32.9,24.9,30.23,NNE,15,1.7,2.3,72,0.00,CLR,,0.00,WeatherDisplay:10.37,2013-01-16 00:28:00,
2013-01-15 19:33:00,33.1,24.7,30.23,NNE,15,0.2,2.0,71,0.00,CLR,,0.00,WeatherDisplay:10.37,2013-01-16 00:33:00,
2013-01-15 19:38:00,33.1,25.1,30.23,NNE,15,0.1,3.5,72,0.00,CLR,,0.00,WeatherDisplay:10.37,2013-01-16 00:38:00,
2013-01-15 19:44:00,33.2,24.8,30.23,NNE,15,0.9,2.3,71,0.00,CLR,,0.00,WeatherDisplay:10.37,2013-01-16 00:44:00,
2013-01-15 19:49:00,33.2,24.8,30.22,NNE,28,2.9,3.5,71,0.00,CLR,,0.00,WeatherDisplay:10.37,2013-01-16 00:49:00,
2013-01-15 19:54:00,33.2,24.5,30.21,NNE,28,2.3,3.5,70,0.00,CLR,,0.00,WeatherDisplay:10.37,2013-01-16 00:54:00,
2013-01-15 19:59:00,33.2,24.5,30.20,NE,40,2.8,3.5,70,0.00,CLR,,0.00,WeatherDisplay:10.37,2013-01-16 00:59:00,
2013-01-15 20:05:00,33.2,24.5,30.20,NE,40,0.2,1.1,70,0.00,CLR,,0.00,WeatherDisplay:10.37,2013-01-16 01:05:00,
2013-01-15 20:10:00,33.2,24.5,30.20,ENE,67,2.4,3.5,70,0.00,CLR,,0.00,WeatherDisplay:10.37,2013-01-16 01:10:00,
2013-01-15 20:15:00,33.2,24.1,30.21,NNE,15,2.5,3.5,69,0.00,CLR,,0.00,WeatherDisplay:10.37,2013-01-16 01:15:00,
2013-01-15 20:20:00,33.1,24.0,30.22,NNE,13,2.2,4.6,69,0.00,CLR,,0.00,WeatherDisplay:10.37,2013-01-16 01:20:00,
2013-01-15 20:25:00,33.1,23.7,30.21,NNE,24,2.1,3.5,68,0.00,CLR,,0.00,WeatherDisplay:10.37,2013-01-16 01:25:00,
2013-01-15 20:31:00,33.1,23.7,30.21,NNE,25,2.2,3.5,68,0.00,CLR,,0.00,WeatherDisplay:10.37,2013-01-16 01:31:00,
2013-01-15 20:36:00,33.1,23.3,30.20,North,5,3.4,5.8,67,0.00,CLR,,0.00,WeatherDisplay:10.37,2013-01-16 01:36:00,
2013-01-15 20:41:00,33.1,23.3,30.21,North,5,4.2,4.6,67,0.00,CLR,,0.00,WeatherDisplay:10.37,2013-01-16 01:41:00,
2013-01-15 20:46:00,33.1,23.3,30.21,North,9,0.9,3.5,67,0.00,CLR,,0.00,WeatherDisplay:10.37,2013-01-16 01:46:00,
2013-01-15 20:52:00,33.1,24.0,30.22,NNW,348,0.7,2.3,69,0.00,CLR,,0.00,WeatherDisplay:10.37,2013-01-16 01:52:00,
2013-01-15 20:57:00,33.1,23.7,30.22,NNE,17,0.6,2.3,68,0.00,CLR,,0.00,WeatherDisplay:10.37,2013-01-16 01:57:00,
2013-01-15 21:02:00,32.9,23.1,30.20,North,360,2.0,3.5,67,0.00,CLR,,0.00,WeatherDisplay:10.37,2013-01-16 02:02:00,
2013-01-15 21:08:00,32.9,23.1,30.20,NE,40,2.6,3.5,67,0.00,CLR,,0.00,WeatherDisplay:10.37,2013-01-16 02:08:00,
2013-01-15 21:13:00,32.9,23.1,30.20,NNE,26,4.7,6.9,67,0.00,CLR,,0.00,WeatherDisplay:10.37,2013-01-16 02:13:00,
2013-01-15 21:18:00,32.9,23.1,30.19,NE,42,1.6,3.5,67,0.00,CLR,,0.00,WeatherDisplay:10.37,2013-01-16 02:18:00,
2013-01-15 21:23:00,32.9,23.1,30.19,NE,42,0.1,1.1,67,0.00,CLR,,0.00,WeatherDisplay:10.37,2013-01-16 02:23:00,
2013-01-15 21:29:00,32.9,23.5,30.20,NE,42,0.0,0.0,68,0.00,CLR,,0.00,WeatherDisplay:10.37,2013-01-16 02:29:00,
2013-01-15 21:34:00,32.9,23.8,30.20,NE,42,0.0,0.0,69,0.00,CLR,,0.00,WeatherDisplay:10.37,2013-01-16 02:34:00,
2013-01-15 21:39:00,32.8,24.1,30.20,NE,42,0.0,0.0,70,0.00,CLR,,0.00,WeatherDisplay:10.37,2013-01-16 02:39:00,
2013-01-15 21:45:00,32.8,24.4,30.20,NE,42,0.0,0.0,71,0.00,CLR,,0.00,WeatherDisplay:10.37,2013-01-16 02:45:00,
2013-01-15 21:50:00,32.8,24.1,30.20,NE,42,0.0,0.0,70,0.00,CLR,,0.00,WeatherDisplay:10.37,2013-01-16 02:50:00,
2013-01-15 21:55:00,32.8,24.1,30.19,NE,42,0.0,0.0,70,0.00,CLR,,0.00,WeatherDisplay:10.37,2013-01-16 02:55:00,
2013-01-15 22:00:00,32.8,24.4,30.19,NE,42,0.0,0.0,71,0.00,CLR,,0.00,WeatherDisplay:10.37,2013-01-16 03:00:00,
2013-01-15 22:05:00,32.7,24.0,30.19,NE,42,1.1,2.0,70,0.00,CLR,,0.00,WeatherDisplay:10.37,2013-01-16 03:05:00,
2013-01-15 22:11:00,32.7,24.3,30.17,NE,42,1.6,3.5,71,0.00,CLR,,0.00,WeatherDisplay:10.37,2013-01-16 03:11:00,
2013-01-15 22:16:00,32.5,24.1,30.17,NE,42,0.0,0.0,71,0.00,CLR,,0.00,WeatherDisplay:10.37,2013-01-16 03:16:00,
2013-01-15 22:21:00,32.5,23.8,30.18,NE,42,0.0,0.0,70,0.00,CLR,,0.00,WeatherDisplay:10.37,2013-01-16 03:21:00,
2013-01-15 22:26:00,32.5,25.1,30.18,NE,42,0.0,0.0,74,0.00,CLR,,0.00,WeatherDisplay:10.37,2013-01-16 03:26:00,
2013-01-15 22:32:00,32.4,25.0,30.18,NE,42,0.0,0.0,74,0.00,CLR,,0.00,WeatherDisplay:10.37,2013-01-16 03:32:00,
2013-01-15 22:37:00,32.2,24.2,30.18,NE,42,0.0,0.0,72,0.00,CLR,,0.00,WeatherDisplay:10.37,2013-01-16 03:37:00,
2013-01-15 22:42:00,32.2,24.2,30.18,NE,42,0.0,0.0,72,0.00,CLR,,0.00,WeatherDisplay:10.37,2013-01-16 03:42:00,
2013-01-15 22:48:00,32.2,24.2,30.18,NE,42,0.0,0.0,72,0.00,CLR,,0.00,WeatherDisplay:10.37,2013-01-16 03:48:00,
2013-01-15 22:53:00,32.2,25.2,30.19,NE,42,0.0,0.0,75,0.00,CLR,,0.00,WeatherDisplay:10.37,2013-01-16 03:53:00,
2013-01-15 22:58:00,32.1,25.1,30.19,NE,42,0.0,0.0,75,0.00,CLR,,0.00,WeatherDisplay:10.37,2013-01-16 03:58:00,
2013-01-15 23:03:00,32.1,25.1,30.19,NE,42,0.0,0.0,75,0.00,CLR,,0.00,WeatherDisplay:10.37,2013-01-16 04:03:00,
2013-01-15 23:08:00,32.2,25.8,30.20,NE,42,0.0,0.0,77,0.00,CLR,,0.00,WeatherDisplay:10.37,2013-01-16 04:08:00,
2013-01-15 23:13:00,32.2,24.8,30.20,NE,42,0.0,0.0,74,0.00,CLR,,0.00,WeatherDisplay:10.37,2013-01-16 04:13:00,
2013-01-15 23:19:00,32.2,25.5,30.20,NE,42,0.0,0.0,76,0.00,CLR,,0.00,WeatherDisplay:10.37,2013-01-16 04:19:00,
2013-01-15 23:24:00,32.2,24.8,30.19,NE,42,2.1,3.5,74,0.00,CLR,,0.00,WeatherDisplay:10.37,2013-01-16 04:24:00,
2013-01-15 23:29:00,32.2,25.2,30.19,NE,42,0.6,2.3,75,0.00,CLR,,0.00,WeatherDisplay:10.37,2013-01-16 04:29:00,
2013-01-15 23:34:00,32.2,24.2,30.19,NNE,17,1.3,3.5,72,0.00,CLR,,0.00,WeatherDisplay:10.37,2013-01-16 04:34:00,
2013-01-15 23:39:00,32.2,23.8,30.18,NE,39,1.4,3.5,71,0.00,CLR,,0.00,WeatherDisplay:10.37,2013-01-16 04:39:00,
2013-01-15 23:45:00,32.2,23.8,30.18,NNE,32,0.3,0.0,71,0.00,CLR,,0.00,WeatherDisplay:10.37,2013-01-16 04:45:00,
2013-01-15 23:50:00,32.2,23.8,30.18,NNE,32,0.2,0.0,71,0.00,CLR,,0.00,WeatherDisplay:10.37,2013-01-16 04:50:00,
2013-01-15 23:55:00,32.2,23.8,30.17,NNE,32,0.0,1.1,71,0.00,CLR,,0.00,WeatherDisplay:10.37,2013-01-16 04:55:00,